sensor_id;sensor_type;location;lat;lon;timestamp;P1;durP1;ratioP1;P2;durP2;ratioP2
64387;SDS011;50709;52.648;4.764;2023-04-24T00:01:36;3.15;;;2.00;;
64387;SDS011;50709;52.648;4.764;2023-04-24T00:04:01;3.20;;;2.00;;
64387;SDS011;50709;52.648;4.764;2023-04-24T00:06:28;3.08;;;1.90;;
64387;SDS011;50709;52.648;4.764;2023-04-24T00:09:05;2.55;;;1.90;;
64387;SDS011;50709;52.648;4.764;2023-04-24T00:11:30;3.38;;;2.03;;
64387;SDS011;50709;52.648;4.764;2023-04-24T00:13:57;2.85;;;2.00;;
64387;SDS011;50709;52.648;4.764;2023-04-24T00:16:24;3.78;;;2.10;;
64387;SDS011;50709;52.648;4.764;2023-04-24T00:19:11;3.42;;;1.90;;
64387;SDS011;50709;52.648;4.764;2023-04-24T00:21:42;3.22;;;2.10;;
64387;SDS011;50709;52.648;4.764;2023-04-24T00:24:07;4.40;;;2.30;;
64387;SDS011;50709;52.648;4.764;2023-04-24T00:26:34;3.08;;;2.20;;
64387;SDS011;50709;52.648;4.764;2023-04-24T00:29:01;2.85;;;2.00;;
64387;SDS011;50709;52.648;4.764;2023-04-24T00:31:27;3.65;;;2.00;;
64387;SDS011;50709;52.648;4.764;2023-04-24T00:34:12;3.00;;;2.00;;
64387;SDS011;50709;52.648;4.764;2023-04-24T00:36:38;3.65;;;2.33;;
64387;SDS011;50709;52.648;4.764;2023-04-24T00:39:04;3.25;;;2.10;;
64387;SDS011;50709;52.648;4.764;2023-04-24T00:41:33;3.60;;;2.30;;
64387;SDS011;50709;52.648;4.764;2023-04-24T00:43:59;2.67;;;1.95;;
64387;SDS011;50709;52.648;4.764;2023-04-24T00:46:24;4.75;;;2.30;;
64387;SDS011;50709;52.648;4.764;2023-04-24T00:48:50;3.50;;;2.17;;
64387;SDS011;50709;52.648;4.764;2023-04-24T00:51:17;4.55;;;2.72;;
64387;SDS011;50709;52.648;4.764;2023-04-24T00:53:43;3.47;;;2.00;;
64387;SDS011;50709;52.648;4.764;2023-04-24T00:56:10;3.75;;;2.30;;
64387;SDS011;50709;52.648;4.764;2023-04-24T00:58:57;4.55;;;2.20;;
64387;SDS011;50709;52.648;4.764;2023-04-24T01:01:23;3.97;;;2.20;;
64387;SDS011;50709;52.648;4.764;2023-04-24T01:03:49;3.80;;;2.20;;
64387;SDS011;50709;52.648;4.764;2023-04-24T01:06:39;4.07;;;2.30;;
64387;SDS011;50709;52.648;4.764;2023-04-24T01:09:15;3.90;;;2.20;;
64387;SDS011;50709;52.648;4.764;2023-04-24T01:11:43;4.03;;;2.30;;
64387;SDS011;50709;52.648;4.764;2023-04-24T01:14:12;2.92;;;1.90;;
64387;SDS011;50709;52.648;4.764;2023-04-24T01:16:38;4.22;;;2.10;;
64387;SDS011;50709;52.648;4.764;2023-04-24T01:19:24;4.38;;;2.45;;
64387;SDS011;50709;52.648;4.764;2023-04-24T01:22:11;3.40;;;2.30;;
64387;SDS011;50709;52.648;4.764;2023-04-24T01:24:38;4.80;;;2.67;;
64387;SDS011;50709;52.648;4.764;2023-04-24T01:27:04;3.90;;;2.33;;
64387;SDS011;50709;52.648;4.764;2023-04-24T01:29:33;5.22;;;3.15;;
64387;SDS011;50709;52.648;4.764;2023-04-24T01:31:59;4.60;;;2.42;;
64387;SDS011;50709;52.648;4.764;2023-04-24T01:34:25;4.55;;;3.05;;
64387;SDS011;50709;52.648;4.764;2023-04-24T01:36:51;6.88;;;2.85;;
64387;SDS011;50709;52.648;4.764;2023-04-24T01:39:18;4.63;;;2.88;;
64387;SDS011;50709;52.648;4.764;2023-04-24T01:42:04;3.88;;;2.50;;
64387;SDS011;50709;52.648;4.764;2023-04-24T01:44:31;4.68;;;2.78;;
64387;SDS011;50709;52.648;4.764;2023-04-24T01:47:02;5.22;;;2.70;;
64387;SDS011;50709;52.648;4.764;2023-04-24T01:49:28;4.13;;;2.40;;
64387;SDS011;50709;52.648;4.764;2023-04-24T01:52:13;4.80;;;2.33;;
64387;SDS011;50709;52.648;4.764;2023-04-24T01:54:40;4.07;;;2.40;;
64387;SDS011;50709;52.648;4.764;2023-04-24T01:57:06;4.10;;;2.25;;
64387;SDS011;50709;52.648;4.764;2023-04-24T01:59:35;4.18;;;2.42;;
64387;SDS011;50709;52.648;4.764;2023-04-24T02:02:01;5.40;;;2.70;;
64387;SDS011;50709;52.648;4.764;2023-04-24T02:04:30;3.65;;;2.00;;
64387;SDS011;50709;52.648;4.764;2023-04-24T02:07:15;4.63;;;2.30;;
64387;SDS011;50709;52.648;4.764;2023-04-24T02:10:01;4.30;;;2.38;;
64387;SDS011;50709;52.648;4.764;2023-04-24T02:12:27;3.40;;;2.20;;
64387;SDS011;50709;52.648;4.764;2023-04-24T02:14:52;3.30;;;2.10;;
64387;SDS011;50709;52.648;4.764;2023-04-24T02:17:18;5.72;;;2.30;;
64387;SDS011;50709;52.648;4.764;2023-04-24T02:19:44;3.80;;;2.30;;
64387;SDS011;50709;52.648;4.764;2023-04-24T02:22:30;4.13;;;2.40;;
64387;SDS011;50709;52.648;4.764;2023-04-24T02:25:15;4.32;;;2.47;;
64387;SDS011;50709;52.648;4.764;2023-04-24T02:27:41;4.88;;;2.40;;
64387;SDS011;50709;52.648;4.764;2023-04-24T02:30:06;3.60;;;2.20;;
64387;SDS011;50709;52.648;4.764;2023-04-24T02:32:33;5.47;;;2.08;;
64387;SDS011;50709;52.648;4.764;2023-04-24T02:34:59;4.15;;;2.28;;
64387;SDS011;50709;52.648;4.764;2023-04-24T02:37:24;4.75;;;2.05;;
64387;SDS011;50709;52.648;4.764;2023-04-24T02:39:52;4.18;;;2.42;;
64387;SDS011;50709;52.648;4.764;2023-04-24T02:42:17;5.88;;;2.60;;
64387;SDS011;50709;52.648;4.764;2023-04-24T02:44:43;3.95;;;2.30;;
64387;SDS011;50709;52.648;4.764;2023-04-24T02:47:10;4.85;;;2.40;;
64387;SDS011;50709;52.648;4.764;2023-04-24T02:49:36;5.00;;;2.47;;
64387;SDS011;50709;52.648;4.764;2023-04-24T02:52:02;5.18;;;2.65;;
64387;SDS011;50709;52.648;4.764;2023-04-24T02:54:27;2.88;;;1.98;;
64387;SDS011;50709;52.648;4.764;2023-04-24T02:56:53;4.03;;;2.13;;
64387;SDS011;50709;52.648;4.764;2023-04-24T02:59:38;4.97;;;2.50;;
64387;SDS011;50709;52.648;4.764;2023-04-24T03:02:03;5.35;;;2.17;;
64387;SDS011;50709;52.648;4.764;2023-04-24T03:04:32;4.72;;;2.42;;
64387;SDS011;50709;52.648;4.764;2023-04-24T03:06:58;5.40;;;2.30;;
64387;SDS011;50709;52.648;4.764;2023-04-24T03:09:24;3.92;;;2.58;;
64387;SDS011;50709;52.648;4.764;2023-04-24T03:11:50;3.50;;;2.38;;
64387;SDS011;50709;52.648;4.764;2023-04-24T03:14:16;3.60;;;2.20;;
64387;SDS011;50709;52.648;4.764;2023-04-24T03:17:01;4.30;;;2.70;;
64387;SDS011;50709;52.648;4.764;2023-04-24T03:19:27;4.35;;;2.40;;
64387;SDS011;50709;52.648;4.764;2023-04-24T03:21:53;4.78;;;2.72;;
64387;SDS011;50709;52.648;4.764;2023-04-24T03:24:19;3.97;;;2.58;;
64387;SDS011;50709;52.648;4.764;2023-04-24T03:26:45;3.65;;;2.90;;
64387;SDS011;50709;52.648;4.764;2023-04-24T03:29:11;4.00;;;2.55;;
64387;SDS011;50709;52.648;4.764;2023-04-24T03:31:58;3.95;;;2.45;;
64387;SDS011;50709;52.648;4.764;2023-04-24T03:34:24;4.55;;;2.75;;
64387;SDS011;50709;52.648;4.764;2023-04-24T03:36:49;5.55;;;2.50;;
64387;SDS011;50709;52.648;4.764;2023-04-24T03:39:15;5.82;;;2.88;;
64387;SDS011;50709;52.648;4.764;2023-04-24T03:42:02;3.22;;;2.40;;
64387;SDS011;50709;52.648;4.764;2023-04-24T03:44:28;5.38;;;2.88;;
64387;SDS011;50709;52.648;4.764;2023-04-24T03:46:54;4.47;;;2.90;;
64387;SDS011;50709;52.648;4.764;2023-04-24T03:49:20;4.13;;;2.78;;
64387;SDS011;50709;52.648;4.764;2023-04-24T03:51:46;6.13;;;3.40;;
64387;SDS011;50709;52.648;4.764;2023-04-24T03:54:32;5.95;;;3.42;;
64387;SDS011;50709;52.648;4.764;2023-04-24T03:56:57;6.60;;;3.30;;
64387;SDS011;50709;52.648;4.764;2023-04-24T03:59:23;4.10;;;2.80;;
64387;SDS011;50709;52.648;4.764;2023-04-24T04:01:51;5.53;;;3.35;;
64387;SDS011;50709;52.648;4.764;2023-04-24T04:04:16;4.32;;;2.65;;
64387;SDS011;50709;52.648;4.764;2023-04-24T04:06:43;4.45;;;2.90;;
64387;SDS011;50709;52.648;4.764;2023-04-24T04:09:09;7.88;;;4.07;;
64387;SDS011;50709;52.648;4.764;2023-04-24T04:11:35;4.97;;;3.10;;
64387;SDS011;50709;52.648;4.764;2023-04-24T04:14:01;6.80;;;2.80;;
64387;SDS011;50709;52.648;4.764;2023-04-24T04:16:46;4.35;;;2.80;;
64387;SDS011;50709;52.648;4.764;2023-04-24T04:19:12;4.85;;;2.80;;
64387;SDS011;50709;52.648;4.764;2023-04-24T04:21:37;5.35;;;2.55;;
64387;SDS011;50709;52.648;4.764;2023-04-24T04:24:04;4.18;;;2.60;;
64387;SDS011;50709;52.648;4.764;2023-04-24T04:26:30;4.03;;;2.40;;
64387;SDS011;50709;52.648;4.764;2023-04-24T04:29:17;3.97;;;2.30;;
64387;SDS011;50709;52.648;4.764;2023-04-24T04:31:47;3.60;;;2.40;;
64387;SDS011;50709;52.648;4.764;2023-04-24T04:34:14;2.97;;;2.10;;
64387;SDS011;50709;52.648;4.764;2023-04-24T04:36:40;2.80;;;2.00;;
64387;SDS011;50709;52.648;4.764;2023-04-24T04:39:06;2.45;;;1.90;;
64387;SDS011;50709;52.648;4.764;2023-04-24T04:41:32;5.07;;;2.25;;
64387;SDS011;50709;52.648;4.764;2023-04-24T04:44:00;3.08;;;2.33;;
64387;SDS011;50709;52.648;4.764;2023-04-24T04:46:26;3.17;;;2.35;;
64387;SDS011;50709;52.648;4.764;2023-04-24T04:48:52;4.18;;;2.45;;
64387;SDS011;50709;52.648;4.764;2023-04-24T04:51:18;4.93;;;2.30;;
64387;SDS011;50709;52.648;4.764;2023-04-24T04:54:05;4.60;;;2.50;;
64387;SDS011;50709;52.648;4.764;2023-04-24T04:56:30;2.88;;;1.95;;
64387;SDS011;50709;52.648;4.764;2023-04-24T04:58:57;5.88;;;3.20;;
64387;SDS011;50709;52.648;4.764;2023-04-24T05:01:24;11.15;;;5.57;;
64387;SDS011;50709;52.648;4.764;2023-04-24T05:03:50;5.93;;;3.40;;
64387;SDS011;50709;52.648;4.764;2023-04-24T05:06:17;7.15;;;4.47;;
64387;SDS011;50709;52.648;4.764;2023-04-24T05:08:43;11.65;;;5.78;;
64387;SDS011;50709;52.648;4.764;2023-04-24T05:11:09;10.73;;;5.00;;
64387;SDS011;50709;52.648;4.764;2023-04-24T05:13:55;19.02;;;9.88;;
64387;SDS011;50709;52.648;4.764;2023-04-24T05:16:21;11.70;;;4.63;;
64387;SDS011;50709;52.648;4.764;2023-04-24T05:18:46;10.25;;;5.63;;
64387;SDS011;50709;52.648;4.764;2023-04-24T05:21:13;8.60;;;4.10;;
64387;SDS011;50709;52.648;4.764;2023-04-24T05:23:59;14.52;;;7.80;;
64387;SDS011;50709;52.648;4.764;2023-04-24T05:26:25;10.23;;;4.95;;
64387;SDS011;50709;52.648;4.764;2023-04-24T05:28:52;11.77;;;5.32;;
64387;SDS011;50709;52.648;4.764;2023-04-24T05:31:17;10.18;;;6.28;;
64387;SDS011;50709;52.648;4.764;2023-04-24T05:33:43;12.82;;;6.20;;
64387;SDS011;50709;52.648;4.764;2023-04-24T05:36:09;12.20;;;6.15;;
64387;SDS011;50709;52.648;4.764;2023-04-24T05:38:35;13.52;;;6.03;;
64387;SDS011;50709;52.648;4.764;2023-04-24T05:41:00;10.10;;;4.70;;
64387;SDS011;50709;52.648;4.764;2023-04-24T05:43:46;10.07;;;5.43;;
64387;SDS011;50709;52.648;4.764;2023-04-24T05:46:11;12.13;;;6.70;;
64387;SDS011;50709;52.648;4.764;2023-04-24T05:48:37;7.00;;;4.13;;
64387;SDS011;50709;52.648;4.764;2023-04-24T05:51:03;9.50;;;4.22;;
64387;SDS011;50709;52.648;4.764;2023-04-24T05:53:31;12.30;;;4.53;;
64387;SDS011;50709;52.648;4.764;2023-04-24T05:56:16;6.97;;;3.85;;
64387;SDS011;50709;52.648;4.764;2023-04-24T05:58:42;6.43;;;3.80;;
64387;SDS011;50709;52.648;4.764;2023-04-24T06:01:07;8.85;;;4.72;;
64387;SDS011;50709;52.648;4.764;2023-04-24T06:03:59;7.80;;;4.28;;
64387;SDS011;50709;52.648;4.764;2023-04-24T06:06:27;5.35;;;3.78;;
64387;SDS011;50709;52.648;4.764;2023-04-24T06:08:57;6.93;;;4.82;;
64387;SDS011;50709;52.648;4.764;2023-04-24T06:11:44;9.00;;;4.00;;
64387;SDS011;50709;52.648;4.764;2023-04-24T06:14:12;8.60;;;4.50;;
64387;SDS011;50709;52.648;4.764;2023-04-24T06:16:41;8.93;;;4.93;;
64387;SDS011;50709;52.648;4.764;2023-04-24T06:19:09;7.18;;;4.18;;
64387;SDS011;50709;52.648;4.764;2023-04-24T06:21:35;4.22;;;2.42;;
64387;SDS011;50709;52.648;4.764;2023-04-24T06:24:00;7.07;;;4.03;;
64387;SDS011;50709;52.648;4.764;2023-04-24T06:26:46;7.70;;;4.18;;
64387;SDS011;50709;52.648;4.764;2023-04-24T06:29:12;9.57;;;4.38;;
64387;SDS011;50709;52.648;4.764;2023-04-24T06:31:37;8.38;;;4.80;;
64387;SDS011;50709;52.648;4.764;2023-04-24T06:34:03;8.35;;;4.55;;
64387;SDS011;50709;52.648;4.764;2023-04-24T06:36:29;7.70;;;4.30;;
64387;SDS011;50709;52.648;4.764;2023-04-24T06:39:14;6.90;;;4.00;;
64387;SDS011;50709;52.648;4.764;2023-04-24T06:42:00;7.03;;;3.70;;
64387;SDS011;50709;52.648;4.764;2023-04-24T06:44:26;7.93;;;4.10;;
64387;SDS011;50709;52.648;4.764;2023-04-24T06:47:12;9.25;;;4.13;;
64387;SDS011;50709;52.648;4.764;2023-04-24T06:49:41;6.85;;;3.80;;
64387;SDS011;50709;52.648;4.764;2023-04-24T06:52:29;8.25;;;4.45;;
64387;SDS011;50709;52.648;4.764;2023-04-24T06:55:04;5.57;;;3.42;;
64387;SDS011;50709;52.648;4.764;2023-04-24T06:57:30;7.43;;;4.00;;
64387;SDS011;50709;52.648;4.764;2023-04-24T06:59:56;7.80;;;3.95;;
64387;SDS011;50709;52.648;4.764;2023-04-24T07:02:22;6.70;;;3.75;;
64387;SDS011;50709;52.648;4.764;2023-04-24T07:04:49;8.57;;;3.50;;
64387;SDS011;50709;52.648;4.764;2023-04-24T07:07:35;6.80;;;4.38;;
64387;SDS011;50709;52.648;4.764;2023-04-24T07:10:03;10.13;;;4.00;;
64387;SDS011;50709;52.648;4.764;2023-04-24T07:12:30;9.75;;;4.45;;
64387;SDS011;50709;52.648;4.764;2023-04-24T07:14:56;15.30;;;5.72;;
64387;SDS011;50709;52.648;4.764;2023-04-24T07:17:22;10.55;;;3.97;;
64387;SDS011;50709;52.648;4.764;2023-04-24T07:19:47;12.00;;;4.65;;
64387;SDS011;50709;52.648;4.764;2023-04-24T07:22:12;10.18;;;4.93;;
64387;SDS011;50709;52.648;4.764;2023-04-24T07:24:42;14.02;;;5.25;;
64387;SDS011;50709;52.648;4.764;2023-04-24T07:27:10;14.30;;;5.60;;
64387;SDS011;50709;52.648;4.764;2023-04-24T07:29:36;15.90;;;5.57;;
64387;SDS011;50709;52.648;4.764;2023-04-24T07:32:02;20.17;;;5.63;;
64387;SDS011;50709;52.648;4.764;2023-04-24T07:34:27;10.82;;;4.25;;
64387;SDS011;50709;52.648;4.764;2023-04-24T07:36:53;18.58;;;5.65;;
64387;SDS011;50709;52.648;4.764;2023-04-24T07:39:18;13.85;;;5.85;;
64387;SDS011;50709;52.648;4.764;2023-04-24T07:41:43;14.30;;;4.75;;
64387;SDS011;50709;52.648;4.764;2023-04-24T07:44:09;18.98;;;6.03;;
64387;SDS011;50709;52.648;4.764;2023-04-24T07:46:35;10.60;;;4.10;;
64387;SDS011;50709;52.648;4.764;2023-04-24T07:49:00;16.33;;;5.97;;
64387;SDS011;50709;52.648;4.764;2023-04-24T07:51:26;15.43;;;5.22;;
64387;SDS011;50709;52.648;4.764;2023-04-24T07:53:56;12.95;;;4.38;;
64387;SDS011;50709;52.648;4.764;2023-04-24T07:56:21;12.63;;;4.60;;
64387;SDS011;50709;52.648;4.764;2023-04-24T07:58:46;15.63;;;5.45;;
64387;SDS011;50709;52.648;4.764;2023-04-24T08:01:12;12.13;;;4.35;;
64387;SDS011;50709;52.648;4.764;2023-04-24T08:03:38;14.45;;;4.85;;
64387;SDS011;50709;52.648;4.764;2023-04-24T08:06:04;9.88;;;4.25;;
64387;SDS011;50709;52.648;4.764;2023-04-24T08:08:30;14.95;;;5.20;;
64387;SDS011;50709;52.648;4.764;2023-04-24T08:10:55;13.65;;;4.43;;
64387;SDS011;50709;52.648;4.764;2023-04-24T08:13:21;10.57;;;3.85;;
64387;SDS011;50709;52.648;4.764;2023-04-24T08:15:46;9.65;;;3.30;;
64387;SDS011;50709;52.648;4.764;2023-04-24T08:18:11;10.68;;;4.10;;
64387;SDS011;50709;52.648;4.764;2023-04-24T08:20:38;10.05;;;4.03;;
64387;SDS011;50709;52.648;4.764;2023-04-24T08:23:04;13.68;;;3.35;;
64387;SDS011;50709;52.648;4.764;2023-04-24T08:25:29;13.68;;;3.70;;
64387;SDS011;50709;52.648;4.764;2023-04-24T08:27:55;12.10;;;3.72;;
64387;SDS011;50709;52.648;4.764;2023-04-24T08:30:20;5.43;;;2.10;;
64387;SDS011;50709;52.648;4.764;2023-04-24T08:32:46;12.13;;;3.88;;
64387;SDS011;50709;52.648;4.764;2023-04-24T08:35:11;9.75;;;3.40;;
64387;SDS011;50709;52.648;4.764;2023-04-24T08:37:37;9.32;;;3.60;;
64387;SDS011;50709;52.648;4.764;2023-04-24T08:40:06;11.07;;;3.72;;
64387;SDS011;50709;52.648;4.764;2023-04-24T08:42:38;9.45;;;2.63;;
64387;SDS011;50709;52.648;4.764;2023-04-24T08:45:04;9.63;;;3.65;;
64387;SDS011;50709;52.648;4.764;2023-04-24T08:47:31;11.02;;;3.42;;
64387;SDS011;50709;52.648;4.764;2023-04-24T08:49:58;6.38;;;2.63;;
64387;SDS011;50709;52.648;4.764;2023-04-24T08:52:27;6.57;;;2.60;;
64387;SDS011;50709;52.648;4.764;2023-04-24T08:54:53;10.57;;;3.63;;
64387;SDS011;50709;52.648;4.764;2023-04-24T08:57:19;9.20;;;3.25;;
64387;SDS011;50709;52.648;4.764;2023-04-24T08:59:45;8.60;;;3.58;;
64387;SDS011;50709;52.648;4.764;2023-04-24T09:02:12;7.30;;;3.38;;
64387;SDS011;50709;52.648;4.764;2023-04-24T09:04:39;6.18;;;3.28;;
64387;SDS011;50709;52.648;4.764;2023-04-24T09:07:06;7.65;;;2.75;;
64387;SDS011;50709;52.648;4.764;2023-04-24T09:09:33;8.82;;;2.90;;
64387;SDS011;50709;52.648;4.764;2023-04-24T09:12:00;5.25;;;2.17;;
64387;SDS011;50709;52.648;4.764;2023-04-24T09:14:26;6.50;;;2.15;;
64387;SDS011;50709;52.648;4.764;2023-04-24T09:16:52;8.77;;;2.85;;
64387;SDS011;50709;52.648;4.764;2023-04-24T09:19:18;3.72;;;2.40;;
64387;SDS011;50709;52.648;4.764;2023-04-24T09:21:45;5.18;;;2.70;;
64387;SDS011;50709;52.648;4.764;2023-04-24T09:24:17;10.32;;;2.67;;
64387;SDS011;50709;52.648;4.764;2023-04-24T09:26:45;5.85;;;2.70;;
64387;SDS011;50709;52.648;4.764;2023-04-24T09:29:16;5.18;;;2.25;;
64387;SDS011;50709;52.648;4.764;2023-04-24T09:31:43;5.50;;;2.35;;
64387;SDS011;50709;52.648;4.764;2023-04-24T09:34:10;6.63;;;2.83;;
64387;SDS011;50709;52.648;4.764;2023-04-24T09:36:36;3.65;;;2.30;;
64387;SDS011;50709;52.648;4.764;2023-04-24T09:39:04;5.57;;;2.15;;
64387;SDS011;50709;52.648;4.764;2023-04-24T09:41:33;6.28;;;2.33;;
64387;SDS011;50709;52.648;4.764;2023-04-24T09:44:12;4.22;;;2.10;;
64387;SDS011;50709;52.648;4.764;2023-04-24T09:46:42;8.02;;;2.50;;
64387;SDS011;50709;52.648;4.764;2023-04-24T09:49:12;4.82;;;2.25;;
64387;SDS011;50709;52.648;4.764;2023-04-24T09:51:40;5.18;;;2.65;;
64387;SDS011;50709;52.648;4.764;2023-04-24T09:54:15;5.68;;;2.55;;
64387;SDS011;50709;52.648;4.764;2023-04-24T09:56:49;6.25;;;2.30;;
64387;SDS011;50709;52.648;4.764;2023-04-24T09:59:15;5.75;;;2.72;;
64387;SDS011;50709;52.648;4.764;2023-04-24T10:01:44;9.18;;;2.33;;
64387;SDS011;50709;52.648;4.764;2023-04-24T10:04:21;5.95;;;2.40;;
64387;SDS011;50709;52.648;4.764;2023-04-24T10:06:48;7.38;;;2.10;;
64387;SDS011;50709;52.648;4.764;2023-04-24T10:09:15;6.75;;;2.80;;
64387;SDS011;50709;52.648;4.764;2023-04-24T10:11:42;8.15;;;2.50;;
64387;SDS011;50709;52.648;4.764;2023-04-24T10:14:13;6.57;;;2.30;;
64387;SDS011;50709;52.648;4.764;2023-04-24T10:16:39;8.82;;;2.38;;
64387;SDS011;50709;52.648;4.764;2023-04-24T10:19:06;3.45;;;1.77;;
64387;SDS011;50709;52.648;4.764;2023-04-24T10:21:32;4.97;;;2.28;;
64387;SDS011;50709;52.648;4.764;2023-04-24T10:23:59;4.75;;;1.75;;
64387;SDS011;50709;52.648;4.764;2023-04-24T10:26:25;2.83;;;1.35;;
64387;SDS011;50709;52.648;4.764;2023-04-24T10:28:52;2.67;;;1.63;;
64387;SDS011;50709;52.648;4.764;2023-04-24T10:31:19;4.70;;;2.03;;
64387;SDS011;50709;52.648;4.764;2023-04-24T10:33:45;6.70;;;1.77;;
64387;SDS011;50709;52.648;4.764;2023-04-24T10:36:11;4.97;;;2.15;;
64387;SDS011;50709;52.648;4.764;2023-04-24T10:38:39;2.30;;;1.70;;
64387;SDS011;50709;52.648;4.764;2023-04-24T10:41:07;3.15;;;1.55;;
64387;SDS011;50709;52.648;4.764;2023-04-24T10:43:44;6.78;;;1.45;;
64387;SDS011;50709;52.648;4.764;2023-04-24T10:46:10;6.60;;;2.03;;
64387;SDS011;50709;52.648;4.764;2023-04-24T10:48:42;4.45;;;1.65;;
64387;SDS011;50709;52.648;4.764;2023-04-24T10:51:10;5.55;;;1.80;;
64387;SDS011;50709;52.648;4.764;2023-04-24T10:53:37;3.15;;;1.67;;
64387;SDS011;50709;52.648;4.764;2023-04-24T10:56:03;6.03;;;2.08;;
64387;SDS011;50709;52.648;4.764;2023-04-24T11:03:58;3.25;;;2.10;;
64387;SDS011;50709;52.648;4.764;2023-04-24T11:09:07;4.53;;;2.17;;
64387;SDS011;50709;52.648;4.764;2023-04-24T11:11:35;4.45;;;1.55;;
64387;SDS011;50709;52.648;4.764;2023-04-24T11:14:03;3.50;;;1.67;;
64387;SDS011;50709;52.648;4.764;2023-04-24T11:26:56;4.75;;;1.92;;
64387;SDS011;50709;52.648;4.764;2023-04-24T11:29:23;7.47;;;1.80;;
64387;SDS011;50709;52.648;4.764;2023-04-24T11:34:47;3.83;;;1.30;;
64387;SDS011;50709;52.648;4.764;2023-04-24T11:37:23;4.35;;;1.73;;
64387;SDS011;50709;52.648;4.764;2023-04-24T11:39:55;7.70;;;2.28;;
64387;SDS011;50709;52.648;4.764;2023-04-24T11:42:22;6.20;;;2.20;;
64387;SDS011;50709;52.648;4.764;2023-04-24T11:44:49;3.95;;;1.50;;
64387;SDS011;50709;52.648;4.764;2023-04-24T11:47:16;2.60;;;1.13;;
64387;SDS011;50709;52.648;4.764;2023-04-24T11:49:42;4.68;;;1.35;;
64387;SDS011;50709;52.648;4.764;2023-04-24T11:52:07;3.28;;;1.73;;
64387;SDS011;50709;52.648;4.764;2023-04-24T11:54:33;6.53;;;1.98;;
64387;SDS011;50709;52.648;4.764;2023-04-24T11:56:58;6.82;;;1.48;;
64387;SDS011;50709;52.648;4.764;2023-04-24T11:59:24;4.00;;;1.55;;
64387;SDS011;50709;52.648;4.764;2023-04-24T12:01:50;4.20;;;1.83;;
64387;SDS011;50709;52.648;4.764;2023-04-24T12:04:16;5.55;;;1.38;;
64387;SDS011;50709;52.648;4.764;2023-04-24T12:07:01;4.28;;;1.40;;
64387;SDS011;50709;52.648;4.764;2023-04-24T12:09:28;2.00;;;1.00;;
64387;SDS011;50709;52.648;4.764;2023-04-24T12:11:54;6.47;;;2.15;;
64387;SDS011;50709;52.648;4.764;2023-04-24T12:14:22;3.88;;;1.70;;
64387;SDS011;50709;52.648;4.764;2023-04-24T12:16:48;2.97;;;1.50;;
64387;SDS011;50709;52.648;4.764;2023-04-24T12:19:23;8.20;;;1.50;;
64387;SDS011;50709;52.648;4.764;2023-04-24T12:22:04;3.30;;;1.65;;
64387;SDS011;50709;52.648;4.764;2023-04-24T12:24:31;6.50;;;1.75;;
64387;SDS011;50709;52.648;4.764;2023-04-24T12:26:57;8.93;;;2.60;;
64387;SDS011;50709;52.648;4.764;2023-04-24T12:29:23;4.60;;;1.55;;
64387;SDS011;50709;52.648;4.764;2023-04-24T12:31:52;6.15;;;1.83;;
64387;SDS011;50709;52.648;4.764;2023-04-24T12:34:20;6.75;;;2.30;;
64387;SDS011;50709;52.648;4.764;2023-04-24T12:36:47;7.88;;;2.33;;
64387;SDS011;50709;52.648;4.764;2023-04-24T12:39:15;9.82;;;2.45;;
64387;SDS011;50709;52.648;4.764;2023-04-24T12:41:57;5.20;;;1.92;;
64387;SDS011;50709;52.648;4.764;2023-04-24T12:44:33;9.05;;;3.05;;
64387;SDS011;50709;52.648;4.764;2023-04-24T12:47:00;5.93;;;2.25;;
64387;SDS011;50709;52.648;4.764;2023-04-24T12:49:26;4.20;;;1.40;;
64387;SDS011;50709;52.648;4.764;2023-04-24T12:51:53;8.52;;;2.50;;
64387;SDS011;50709;52.648;4.764;2023-04-24T12:54:18;7.43;;;2.15;;
64387;SDS011;50709;52.648;4.764;2023-04-24T12:56:44;7.70;;;2.30;;
64387;SDS011;50709;52.648;4.764;2023-04-24T12:59:09;3.10;;;1.85;;
64387;SDS011;50709;52.648;4.764;2023-04-24T13:01:34;3.65;;;1.55;;
64387;SDS011;50709;52.648;4.764;2023-04-24T13:04:00;4.07;;;1.50;;
64387;SDS011;50709;52.648;4.764;2023-04-24T13:06:25;6.35;;;2.22;;
64387;SDS011;50709;52.648;4.764;2023-04-24T13:08:51;4.35;;;1.83;;
64387;SDS011;50709;52.648;4.764;2023-04-24T13:11:16;4.70;;;1.92;;
64387;SDS011;50709;52.648;4.764;2023-04-24T13:13:42;5.47;;;2.05;;
64387;SDS011;50709;52.648;4.764;2023-04-24T13:16:08;4.90;;;1.70;;
64387;SDS011;50709;52.648;4.764;2023-04-24T13:18:33;6.97;;;1.90;;
64387;SDS011;50709;52.648;4.764;2023-04-24T13:20:58;5.47;;;1.65;;
64387;SDS011;50709;52.648;4.764;2023-04-24T13:23:24;5.38;;;2.45;;
64387;SDS011;50709;52.648;4.764;2023-04-24T13:25:49;7.13;;;2.13;;
64387;SDS011;50709;52.648;4.764;2023-04-24T13:28:15;4.97;;;1.95;;
64387;SDS011;50709;52.648;4.764;2023-04-24T13:30:40;10.60;;;2.60;;
64387;SDS011;50709;52.648;4.764;2023-04-24T13:33:06;7.45;;;2.22;;
64387;SDS011;50709;52.648;4.764;2023-04-24T13:35:31;9.90;;;2.80;;
64387;SDS011;50709;52.648;4.764;2023-04-24T13:37:57;6.40;;;2.10;;
64387;SDS011;50709;52.648;4.764;2023-04-24T13:40:22;6.15;;;2.20;;
64387;SDS011;50709;52.648;4.764;2023-04-24T13:42:48;7.13;;;2.08;;
64387;SDS011;50709;52.648;4.764;2023-04-24T13:45:14;5.55;;;2.72;;
64387;SDS011;50709;52.648;4.764;2023-04-24T13:47:40;7.30;;;2.33;;
64387;SDS011;50709;52.648;4.764;2023-04-24T13:50:07;6.93;;;2.13;;
64387;SDS011;50709;52.648;4.764;2023-04-24T13:52:33;6.18;;;2.22;;
64387;SDS011;50709;52.648;4.764;2023-04-24T13:54:59;4.18;;;1.70;;
64387;SDS011;50709;52.648;4.764;2023-04-24T13:57:24;7.32;;;2.35;;
64387;SDS011;50709;52.648;4.764;2023-04-24T13:59:50;2.40;;;1.08;;
64387;SDS011;50709;52.648;4.764;2023-04-24T14:02:15;4.28;;;1.88;;
64387;SDS011;50709;52.648;4.764;2023-04-24T14:04:41;6.78;;;2.75;;
64387;SDS011;50709;52.648;4.764;2023-04-24T14:07:06;8.27;;;2.72;;
64387;SDS011;50709;52.648;4.764;2023-04-24T14:09:33;6.20;;;2.08;;
64387;SDS011;50709;52.648;4.764;2023-04-24T14:11:58;4.68;;;2.03;;
64387;SDS011;50709;52.648;4.764;2023-04-24T14:14:25;7.72;;;2.75;;
64387;SDS011;50709;52.648;4.764;2023-04-24T14:16:51;8.25;;;2.38;;
64387;SDS011;50709;52.648;4.764;2023-04-24T14:19:17;2.92;;;1.73;;
64387;SDS011;50709;52.648;4.764;2023-04-24T14:21:42;5.35;;;2.22;;
64387;SDS011;50709;52.648;4.764;2023-04-24T14:24:07;12.68;;;3.05;;
64387;SDS011;50709;52.648;4.764;2023-04-24T14:26:33;2.67;;;1.52;;
64387;SDS011;50709;52.648;4.764;2023-04-24T14:28:58;2.95;;;1.80;;
64387;SDS011;50709;52.648;4.764;2023-04-24T14:31:24;9.07;;;2.88;;
64387;SDS011;50709;52.648;4.764;2023-04-24T14:33:49;3.13;;;1.42;;
64387;SDS011;50709;52.648;4.764;2023-04-24T14:36:14;3.53;;;1.70;;
64387;SDS011;50709;52.648;4.764;2023-04-24T14:38:40;8.10;;;2.90;;
64387;SDS011;50709;52.648;4.764;2023-04-24T14:41:05;5.03;;;2.10;;
64387;SDS011;50709;52.648;4.764;2023-04-24T14:43:34;6.25;;;2.28;;
64387;SDS011;50709;52.648;4.764;2023-04-24T14:46:00;3.97;;;1.70;;
64387;SDS011;50709;52.648;4.764;2023-04-24T14:48:26;5.32;;;2.28;;
64387;SDS011;50709;52.648;4.764;2023-04-24T14:50:51;4.28;;;2.20;;
64387;SDS011;50709;52.648;4.764;2023-04-24T14:53:17;7.65;;;2.10;;
64387;SDS011;50709;52.648;4.764;2023-04-24T14:55:42;5.13;;;1.65;;
64387;SDS011;50709;52.648;4.764;2023-04-24T14:58:07;5.25;;;2.22;;
64387;SDS011;50709;52.648;4.764;2023-04-24T15:00:33;3.28;;;1.90;;
64387;SDS011;50709;52.648;4.764;2023-04-24T15:02:59;8.63;;;2.55;;
64387;SDS011;50709;52.648;4.764;2023-04-24T15:05:25;6.25;;;2.67;;
64387;SDS011;50709;52.648;4.764;2023-04-24T15:07:51;7.57;;;3.10;;
64387;SDS011;50709;52.648;4.764;2023-04-24T15:10:16;5.75;;;1.90;;
64387;SDS011;50709;52.648;4.764;2023-04-24T15:12:42;4.82;;;2.20;;
64387;SDS011;50709;52.648;4.764;2023-04-24T15:15:08;7.28;;;2.67;;